sensor_id;sensor_type;location;lat;lon;timestamp;P1;durP1;ratioP1;P2;durP2;ratioP2
9094;SDS011;4583;49.796;9.902;2022-07-29T00:02:04;6.53;;;2.87;;
9094;SDS011;4583;49.796;9.902;2022-07-29T00:12:05;6.37;;;3.63;;
9094;SDS011;4583;49.796;9.902;2022-07-29T00:22:09;16.73;;;3.90;;
9094;SDS011;4583;49.796;9.902;2022-07-29T00:32:11;21.00;;;3.27;;
9094;SDS011;4583;49.796;9.902;2022-07-29T00:42:13;4.63;;;3.23;;
9094;SDS011;4583;49.796;9.902;2022-07-29T00:52:15;7.53;;;3.43;;
9094;SDS011;4583;49.796;9.902;2022-07-29T01:02:17;7.20;;;3.57;;
9094;SDS011;4583;49.796;9.902;2022-07-29T01:12:21;7.07;;;3.57;;
9094;SDS011;4583;49.796;9.902;2022-07-29T01:32:36;7.43;;;4.17;;
9094;SDS011;4583;49.796;9.902;2022-07-29T01:42:42;8.13;;;4.13;;
9094;SDS011;4583;49.796;9.902;2022-07-29T01:52:56;35.33;;;8.47;;
9094;SDS011;4583;49.796;9.902;2022-07-29T02:03:02;15.00;;;5.97;;
9094;SDS011;4583;49.796;9.902;2022-07-29T02:13:08;25.60;;;7.33;;
9094;SDS011;4583;49.796;9.902;2022-07-29T02:23:11;20.47;;;6.30;;
9094;SDS011;4583;49.796;9.902;2022-07-29T02:33:15;10.37;;;4.30;;
9094;SDS011;4583;49.796;9.902;2022-07-29T02:43:19;12.80;;;4.50;;
9094;SDS011;4583;49.796;9.902;2022-07-29T02:53:23;12.03;;;4.73;;
9094;SDS011;4583;49.796;9.902;2022-07-29T03:03:28;9.67;;;5.90;;
9094;SDS011;4583;49.796;9.902;2022-07-29T03:13:35;16.30;;;7.93;;
9094;SDS011;4583;49.796;9.902;2022-07-29T03:23:38;14.53;;;6.30;;
9094;SDS011;4583;49.796;9.902;2022-07-29T03:33:46;11.43;;;4.40;;
9094;SDS011;4583;49.796;9.902;2022-07-29T03:43:47;14.20;;;4.40;;
9094;SDS011;4583;49.796;9.902;2022-07-29T03:53:51;9.40;;;4.03;;
9094;SDS011;4583;49.796;9.902;2022-07-29T04:03:57;12.57;;;4.50;;
9094;SDS011;4583;49.796;9.902;2022-07-29T04:13:59;9.53;;;4.10;;
9094;SDS011;4583;49.796;9.902;2022-07-29T04:24:01;10.53;;;4.33;;
9094;SDS011;4583;49.796;9.902;2022-07-29T04:34:03;11.13;;;4.50;;
9094;SDS011;4583;49.796;9.902;2022-07-29T04:44:04;9.53;;;4.30;;
9094;SDS011;4583;49.796;9.902;2022-07-29T04:54:12;10.17;;;3.97;;
9094;SDS011;4583;49.796;9.902;2022-07-29T05:04:14;9.17;;;3.90;;
9094;SDS011;4583;49.796;9.902;2022-07-29T05:14:17;13.43;;;4.33;;
9094;SDS011;4583;49.796;9.902;2022-07-29T05:24:20;33.90;;;5.13;;
9094;SDS011;4583;49.796;9.902;2022-07-29T05:34:21;22.23;;;5.73;;
9094;SDS011;4583;49.796;9.902;2022-07-29T05:44:23;17.33;;;4.47;;
9094;SDS011;4583;49.796;9.902;2022-07-29T05:54:25;10.93;;;4.20;;
9094;SDS011;4583;49.796;9.902;2022-07-29T06:04:27;13.67;;;3.20;;
9094;SDS011;4583;49.796;9.902;2022-07-29T06:14:29;5.67;;;2.80;;
9094;SDS011;4583;49.796;9.902;2022-07-29T06:24:31;13.67;;;3.03;;
9094;SDS011;4583;49.796;9.902;2022-07-29T06:34:33;6.17;;;2.90;;
9094;SDS011;4583;49.796;9.902;2022-07-29T06:44:35;8.00;;;3.17;;
9094;SDS011;4583;49.796;9.902;2022-07-29T06:54:37;9.37;;;3.70;;
9094;SDS011;4583;49.796;9.902;2022-07-29T07:04:39;5.87;;;3.20;;
9094;SDS011;4583;49.796;9.902;2022-07-29T07:14:41;7.07;;;3.00;;
9094;SDS011;4583;49.796;9.902;2022-07-29T07:24:43;3.90;;;2.80;;
9094;SDS011;4583;49.796;9.902;2022-07-29T07:34:45;5.77;;;3.33;;
9094;SDS011;4583;49.796;9.902;2022-07-29T07:44:46;5.13;;;2.47;;
9094;SDS011;4583;49.796;9.902;2022-07-29T07:55:09;8.33;;;3.10;;
9094;SDS011;4583;49.796;9.902;2022-07-29T08:05:11;5.80;;;3.00;;
9094;SDS011;4583;49.796;9.902;2022-07-29T08:15:17;7.23;;;3.13;;
9094;SDS011;4583;49.796;9.902;2022-07-29T08:25:18;6.10;;;3.23;;
9094;SDS011;4583;49.796;9.902;2022-07-29T08:35:22;7.10;;;2.90;;
9094;SDS011;4583;49.796;9.902;2022-07-29T08:45:24;4.20;;;2.90;;
9094;SDS011;4583;49.796;9.902;2022-07-29T08:55:27;5.43;;;2.60;;
9094;SDS011;4583;49.796;9.902;2022-07-29T09:05:29;6.10;;;4.13;;
9094;SDS011;4583;49.796;9.902;2022-07-29T09:15:36;9.90;;;3.87;;
9094;SDS011;4583;49.796;9.902;2022-07-29T09:25:39;7.27;;;4.97;;
9094;SDS011;4583;49.796;9.902;2022-07-29T09:35:41;12.77;;;3.17;;
9094;SDS011;4583;49.796;9.902;2022-07-29T09:46:09;9.67;;;3.40;;
9094;SDS011;4583;49.796;9.902;2022-07-29T09:56:12;14.17;;;3.40;;
9094;SDS011;4583;49.796;9.902;2022-07-29T10:06:15;14.23;;;4.03;;
9094;SDS011;4583;49.796;9.902;2022-07-29T10:16:17;13.63;;;5.20;;
9094;SDS011;4583;49.796;9.902;2022-07-29T10:26:19;6.30;;;4.07;;
9094;SDS011;4583;49.796;9.902;2022-07-29T10:36:27;10.93;;;3.47;;
9094;SDS011;4583;49.796;9.902;2022-07-29T10:46:37;7.60;;;3.40;;
9094;SDS011;4583;49.796;9.902;2022-07-29T10:56:41;9.47;;;3.60;;
9094;SDS011;4583;49.796;9.902;2022-07-29T11:17:09;12.93;;;4.17;;
9094;SDS011;4583;49.796;9.902;2022-07-29T11:27:19;6.30;;;3.20;;
9094;SDS011;4583;49.796;9.902;2022-07-29T11:37:28;7.67;;;3.00;;
9094;SDS011;4583;49.796;9.902;2022-07-29T11:47:32;7.00;;;3.53;;
9094;SDS011;4583;49.796;9.902;2022-07-29T11:57:56;7.47;;;4.00;;
9094;SDS011;4583;49.796;9.902;2022-07-29T12:08:05;8.13;;;3.30;;
9094;SDS011;4583;49.796;9.902;2022-07-29T12:18:16;6.30;;;3.07;;
9094;SDS011;4583;49.796;9.902;2022-07-29T12:28:24;7.33;;;2.70;;
9094;SDS011;4583;49.796;9.902;2022-07-29T12:38:28;6.90;;;4.03;;
9094;SDS011;4583;49.796;9.902;2022-07-29T12:48:33;5.63;;;3.47;;
9094;SDS011;4583;49.796;9.902;2022-07-29T12:58:37;6.40;;;3.40;;
9094;SDS011;4583;49.796;9.902;2022-07-29T13:08:52;11.83;;;6.77;;
9094;SDS011;4583;49.796;9.902;2022-07-29T13:19:04;6.40;;;3.33;;
9094;SDS011;4583;49.796;9.902;2022-07-29T13:29:11;8.80;;;3.90;;
9094;SDS011;4583;49.796;9.902;2022-07-29T13:39:13;3.43;;;3.10;;
9094;SDS011;4583;49.796;9.902;2022-07-29T13:49:15;6.27;;;3.60;;
9094;SDS011;4583;49.796;9.902;2022-07-29T13:59:16;7.50;;;4.20;;
9094;SDS011;4583;49.796;9.902;2022-07-29T14:09:19;12.50;;;3.80;;
9094;SDS011;4583;49.796;9.902;2022-07-29T14:19:21;7.53;;;4.20;;
9094;SDS011;4583;49.796;9.902;2022-07-29T14:29:22;9.73;;;4.57;;
9094;SDS011;4583;49.796;9.902;2022-07-29T14:39:37;8.47;;;5.47;;
9094;SDS011;4583;49.796;9.902;2022-07-29T14:49:43;6.77;;;5.23;;
9094;SDS011;4583;49.796;9.902;2022-07-29T14:59:45;7.40;;;5.53;;
9094;SDS011;4583;49.796;9.902;2022-07-29T15:09:46;8.47;;;4.73;;
9094;SDS011;4583;49.796;9.902;2022-07-29T15:19:50;5.60;;;3.47;;
9094;SDS011;4583;49.796;9.902;2022-07-29T15:29:52;4.53;;;3.33;;
9094;SDS011;4583;49.796;9.902;2022-07-29T15:39:55;5.27;;;3.83;;
9094;SDS011;4583;49.796;9.902;2022-07-29T15:50:00;7.30;;;3.73;;
9094;SDS011;4583;49.796;9.902;2022-07-29T16:00:03;5.77;;;4.20;;
9094;SDS011;4583;49.796;9.902;2022-07-29T16:10:09;5.17;;;4.00;;
9094;SDS011;4583;49.796;9.902;2022-07-29T16:20:10;6.63;;;3.70;;
9094;SDS011;4583;49.796;9.902;2022-07-29T16:30:14;6.13;;;3.73;;
9094;SDS011;4583;49.796;9.902;2022-07-29T16:40:15;6.50;;;4.30;;
9094;SDS011;4583;49.796;9.902;2022-07-29T16:50:17;6.63;;;4.40;;
9094;SDS011;4583;49.796;9.902;2022-07-29T17:00:19;6.77;;;3.73;;
9094;SDS011;4583;49.796;9.902;2022-07-29T17:10:21;7.07;;;3.77;;
9094;SDS011;4583;49.796;9.902;2022-07-29T17:20:27;4.13;;;3.47;;
9094;SDS011;4583;49.796;9.902;2022-07-29T17:30:29;10.00;;;4.50;;
9094;SDS011;4583;49.796;9.902;2022-07-29T17:40:31;7.60;;;4.60;;
9094;SDS011;4583;49.796;9.902;2022-07-29T17:50:33;6.73;;;3.80;;
9094;SDS011;4583;49.796;9.902;2022-07-29T18:00:35;6.07;;;3.80;;
9094;SDS011;4583;49.796;9.902;2022-07-29T18:10:37;5.50;;;3.90;;
9094;SDS011;4583;49.796;9.902;2022-07-29T18:20:39;18.27;;;3.80;;
9094;SDS011;4583;49.796;9.902;2022-07-29T18:30:42;4.50;;;3.90;;
9094;SDS011;4583;49.796;9.902;2022-07-29T18:40:46;6.00;;;4.53;;
9094;SDS011;4583;49.796;9.902;2022-07-29T18:50:48;7.40;;;4.17;;
9094;SDS011;4583;49.796;9.902;2022-07-29T19:00:50;5.83;;;4.90;;
9094;SDS011;4583;49.796;9.902;2022-07-29T19:10:52;9.33;;;4.93;;
9094;SDS011;4583;49.796;9.902;2022-07-29T19:20:53;6.33;;;4.87;;
9094;SDS011;4583;49.796;9.902;2022-07-29T19:30:55;7.87;;;4.60;;
9094;SDS011;4583;49.796;9.902;2022-07-29T19:40:58;7.10;;;5.13;;
9094;SDS011;4583;49.796;9.902;2022-07-29T19:50:59;6.60;;;5.00;;
9094;SDS011;4583;49.796;9.902;2022-07-29T20:01:01;8.60;;;6.00;;
9094;SDS011;4583;49.796;9.902;2022-07-29T20:11:11;6.77;;;5.37;;
9094;SDS011;4583;49.796;9.902;2022-07-29T20:21:12;6.53;;;5.47;;
9094;SDS011;4583;49.796;9.902;2022-07-29T20:31:14;7.50;;;6.27;;
9094;SDS011;4583;49.796;9.902;2022-07-29T20:41:17;10.47;;;7.03;;
9094;SDS011;4583;49.796;9.902;2022-07-29T20:51:18;6.77;;;6.03;;
9094;SDS011;4583;49.796;9.902;2022-07-29T21:01:21;6.97;;;5.90;;
9094;SDS011;4583;49.796;9.902;2022-07-29T21:11:23;6.60;;;5.77;;
9094;SDS011;4583;49.796;9.902;2022-07-29T21:21:44;7.10;;;5.37;;
9094;SDS011;4583;49.796;9.902;2022-07-29T21:31:46;6.07;;;5.47;;
9094;SDS011;4583;49.796;9.902;2022-07-29T21:41:48;6.60;;;5.93;;
9094;SDS011;4583;49.796;9.902;2022-07-29T21:51:50;7.40;;;6.10;;
9094;SDS011;4583;49.796;9.902;2022-07-29T22:01:52;6.37;;;5.57;;
9094;SDS011;4583;49.796;9.902;2022-07-29T22:11:54;7.90;;;6.00;;
9094;SDS011;4583;49.796;9.902;2022-07-29T22:21:56;8.10;;;5.80;;
9094;SDS011;4583;49.796;9.902;2022-07-29T22:31:58;7.47;;;6.47;;
9094;SDS011;4583;49.796;9.902;2022-07-29T22:41:59;11.07;;;7.73;;
9094;SDS011;4583;49.796;9.902;2022-07-29T22:52:01;8.43;;;6.60;;
9094;SDS011;4583;49.796;9.902;2022-07-29T23:02:03;8.53;;;7.23;;
9094;SDS011;4583;49.796;9.902;2022-07-29T23:12:05;8.37;;;6.70;;
9094;SDS011;4583;49.796;9.902;2022-07-29T23:22:07;9.80;;;6.90;;
9094;SDS011;4583;49.796;9.902;2022-07-29T23:32:09;12.57;;;7.77;;
9094;SDS011;4583;49.796;9.902;2022-07-29T23:42:11;8.90;;;7.07;;
9094;SDS011;4583;49.796;9.902;2022-07-29T23:52:12;7.43;;;6.50;;
